Time;durP1;ratioP1;P1;durP2;ratioP2;P2;SDS_P1;SDS_P2;PMS_P1;PMS_P2;Temp;Humidity;BMP_temperature;BMP_pressure;BME280_temperature;BME280_humidity;BME280_pressure;Samples;Min_cycle;Max_cycle;Signal;HPM_P1;HPM_P2
2022/09/11 00:01:56;;;;;;;8.38;7.57;;;;;;;13.61;100.00;100828.97;5029222;28;20163;-83
2022/09/11 00:04:23;;;;;;;;;;;;;;;13.63;100.00;100828.03;5043304;28;20530;-84
2022/09/11 00:06:50;;;;;;;8.25;7.43;;;;;;;13.60;100.00;100828.09;5045566;28;19921;-83
2022/09/11 00:09:20;;;;;;;8.82;7.68;;;;;;;13.61;100.00;100823.69;5047240;28;20140;-83
2022/09/11 00:11:46;;;;;;;9.95;7.22;;;;;;;13.63;100.00;100832.44;5045132;28;20073;-84
2022/09/11 00:14:14;;;;;;;8.90;8.10;;;;;;;13.58;100.00;100837.78;5044713;28;20554;-84
2022/09/11 00:16:47;;;;;;;8.65;7.55;;;;;;;13.55;100.00;100843.09;5076210;28;20080;-84
2022/09/11 00:19:18;;;;;;;8.75;7.95;;;;;;;13.47;100.00;100840.63;5046054;28;20046;-84
2022/09/11 00:21:45;;;;;;;9.32;8.52;;;;;;;13.45;100.00;100847.66;5033290;28;20056;-83
2022/09/11 00:24:13;;;;;;;9.95;8.95;;;;;;;13.44;100.00;100840.69;5032722;28;20045;-83
2022/09/11 00:26:46;;;;;;;11.00;9.35;;;;;;;13.39;100.00;100846.00;5052249;28;20045;-84
2022/09/11 00:29:12;;;;;;;17.45;9.45;;;;;;;13.36;100.00;100847.78;5033709;28;20483;-83
2022/09/11 00:31:40;;;;;;;9.75;8.85;;;;;;;13.36;100.00;100847.78;5090621;28;20037;-84
2022/09/11 00:34:11;;;;;;;10.82;9.60;;;;;;;13.35;100.00;100843.41;5052473;28;20079;-84
2022/09/11 00:36:42;;;;;;;12.07;9.85;;;;;;;13.38;100.00;100846.03;5031512;28;20111;-85
2022/09/11 00:39:11;;;;;;;11.20;9.25;;;;;;;13.39;100.00;100845.16;5027086;28;20131;-84
2022/09/11 00:41:45;;;;;;;12.23;9.20;;;;;;;13.37;100.00;100847.78;5026574;28;20115;-85
2022/09/11 00:44:14;;;;;;;10.82;9.65;;;;;;;13.34;100.00;100844.31;5041829;28;20041;-84
2022/09/11 00:47:09;;;;;;;11.57;9.93;;;;;;;13.32;100.00;100849.59;5076888;28;20056;-84
2022/09/11 00:49:49;;;;;;;10.68;8.50;;;;;;;13.29;100.00;100849.66;5068597;28;20136;-84
2022/09/11 00:52:26;;;;;;;10.60;9.15;;;;;;;13.27;100.00;100851.47;5038840;28;20885;-85
2022/09/11 00:55:11;;;;;;;9.20;8.30;;;;;;;13.23;100.00;100845.38;5025557;28;20096;-84
2022/09/11 00:57:47;;;;;;;14.07;11.30;;;;;;;13.25;100.00;100853.22;5031705;28;20122;-84
2022/09/11 01:00:16;;;;;;;12.93;10.68;;;;;;;13.28;100.00;100847.91;5044300;28;20124;-84
2022/09/11 01:02:48;;;;;;;12.65;9.52;;;;;;;13.32;100.00;100857.47;5044076;28;20055;-84
2022/09/11 01:05:21;;;;;;;10.00;9.00;;;;;;;13.34;100.00;100855.69;5025157;28;20049;-85
2022/09/11 01:07:53;;;;;;;11.98;10.10;;;;;;;13.33;100.00;100853.97;5043596;28;20063;-84
2022/09/11 01:10:37;;;;;;;13.98;10.40;;;;;;;13.35;100.00;100859.19;5010828;28;20052;-84
2022/09/11 01:13:37;;;;;;;12.48;10.73;;;;;;;13.35;100.00;100853.94;5041091;28;20423;-83
2022/09/11 01:16:29;;;;;;;12.68;10.07;;;;;;;13.33;100.00;100855.72;5025103;28;20052;-84
2022/09/11 01:19:07;;;;;;;14.02;10.05;;;;;;;13.27;100.00;100861.09;5046878;28;20591;-84
2022/09/11 01:22:10;;;;;;;11.40;10.25;;;;;;;13.25;100.00;100861.13;5028472;28;20052;-85
2022/09/11 01:24:56;;;;;;;11.65;10.45;;;;;;;13.22;100.00;100858.56;5028649;28;20049;-84
2022/09/11 01:27:50;;;;;;;13.05;10.60;;;;;;;13.28;100.00;100862.81;5049521;28;20418;-85
2022/09/11 01:30:28;;;;;;;13.30;11.80;;;;;;;13.41;100.00;100864.38;5041220;28;20060;-84
2022/09/11 01:33:11;;;;;;;18.20;13.55;;;;;;;13.56;100.00;100863.25;5050145;28;20774;-84
2022/09/11 01:36:13;;;;;;;19.75;13.60;;;;;;;13.69;100.00;100866.53;5047328;28;20049;-84
2022/09/11 01:38:55;;;;;;;20.50;14.15;;;;;;;13.79;100.00;100864.59;5055175;28;20045;-83
2022/09/11 01:41:35;;;;;;;21.77;14.38;;;;;;;13.86;100.00;100872.34;5049788;28;20534;-84
2022/09/11 01:44:23;;;;;;;22.00;15.90;;;;;;;13.94;100.00;100879.22;5048279;28;20172;-84
2022/09/11 01:46:52;;;;;;;23.17;17.02;;;;;;;14.00;100.00;100876.47;5033668;28;20071;-84
2022/09/11 01:49:28;;;;;;;25.65;17.13;;;;;;;14.05;100.00;100869.34;5034874;28;20099;-84
2022/09/11 01:52:01;;;;;;;24.63;18.13;;;;;;;14.09;100.00;100885.94;5031994;28;20548;-84
2022/09/11 01:54:35;;;;;;;28.43;17.97;;;;;;;14.11;100.00;100878.91;5049672;28;20110;-84
2022/09/11 01:57:12;;;;;;;35.85;20.80;;;;;;;14.13;100.00;100877.97;5035703;28;20079;-84
2022/09/11 01:59:50;;;;;;;34.53;21.35;;;;;;;14.13;100.00;100882.34;5068167;28;20087;-84
2022/09/11 02:02:26;;;;;;;36.97;21.85;;;;;;;14.15;100.00;100876.16;5039686;28;20102;-84
2022/09/11 02:05:09;;;;;;;43.10;23.65;;;;;;;14.16;100.00;100883.16;5046864;28;20040;-84
2022/09/11 02:07:46;;;;;;;43.05;24.98;;;;;;;14.16;100.00;100882.31;5047695;28;20084;-85
2022/09/11 02:10:30;;;;;;;41.97;23.55;;;;;;;14.17;100.00;100884.91;5047787;28;20059;-84
2022/09/11 02:13:13;;;;;;;37.30;21.50;;;;;;;14.16;100.00;100877.91;5026219;28;20060;-84
2022/09/11 02:15:55;;;;;;;45.73;24.07;;;;;;;14.20;100.00;100884.81;5043066;28;20050;-84
2022/09/11 02:18:39;;;;;;;51.75;25.75;;;;;;;14.21;100.00;100883.94;5046756;28;20064;-85
2022/09/11 02:21:05;;;;;;;36.08;22.70;;;;;;;14.21;100.00;100888.34;5050964;28;20068;-84
2022/09/11 02:23:34;;;;;;;42.42;25.17;;;;;;;14.25;100.00;100889.13;5068701;28;20033;-85
2022/09/11 02:26:03;;;;;;;41.17;24.02;;;;;;;14.27;100.00;100889.97;5055340;28;20044;-83
2022/09/11 02:28:31;;;;;;;44.20;22.60;;;;;;;14.25;100.00;100897.91;5073771;28;20024;-85
2022/09/11 02:31:02;;;;;;;38.05;22.23;;;;;;;14.22;100.00;100897.97;5075447;28;20029;-84
2022/09/11 02:33:37;;;;;;;38.33;22.75;;;;;;;14.24;100.00;100901.44;5043951;28;20108;-84
2022/09/11 02:36:37;;;;;;;29.35;19.10;;;;;;;14.24;100.00;100904.06;5071726;28;20052;-84
2022/09/11 02:39:59;;;;;;;38.50;22.13;;;;;;;14.22;100.00;100900.59;5047668;28;20773;-85
2022/09/11 02:43:04;;;;;;;33.53;18.90;;;;;;;14.26;100.00;100909.31;5041491;28;20080;-85
2022/09/11 02:46:15;;;;;;;48.97;25.25;;;;;;;14.26;100.00;100910.16;5038936;28;20091;-85
2022/09/11 02:49:05;;;;;;;39.05;22.65;;;;;;;14.27;100.00;100914.53;5045647;28;20055;-84
2022/09/11 02:51:54;;;;;;;32.50;19.85;;;;;;;14.25;100.00;100918.97;5039726;28;20131;-85
2022/09/11 02:54:36;;;;;;;36.85;21.70;;;;;;;14.22;100.00;100919.91;5022053;28;20629;-84
2022/09/11 02:57:23;;;;;;;39.78;22.77;;;;;;;14.20;100.00;100920.84;5044123;28;20175;-84
2022/09/11 02:59:59;;;;;;;37.90;23.50;;;;;;;14.17;100.00;100927.03;5042091;28;20056;-84
2022/09/11 03:02:29;;;;;;;28.13;18.80;;;;;;;14.15;100.00;100930.59;5035536;28;20076;-84
2022/09/11 03:04:57;;;;;;;34.28;21.98;;;;;;;14.16;100.00;100927.06;5026164;28;20076;-85
2022/09/11 03:07:25;;;;;;;40.83;23.15;;;;;;;14.18;100.00;100927.88;5050212;28;20060;-84
2022/09/11 03:09:52;;;;;;;32.30;20.48;;;;;;;14.18;100.00;100934.03;5053843;28;20045;-84
2022/09/11 03:12:21;;;;;;;28.48;18.38;;;;;;;14.16;100.00;100935.81;5048032;28;20056;-84
2022/09/11 03:14:49;;;;;;;37.20;22.83;;;;;;;14.14;100.00;100940.22;5046372;28;20063;-84
2022/09/11 03:17:20;;;;;;;32.72;21.00;;;;;;;14.09;100.00;100942.09;5066078;28;20045;-84
2022/09/11 03:19:48;;;;;;;34.55;22.50;;;;;;;14.09;100.00;100934.19;5024605;28;22265;-84
2022/09/11 03:22:15;;;;;;;33.28;22.10;;;;;;;14.09;100.00;100936.81;5043670;28;20041;-83
2022/09/11 03:24:45;;;;;;;35.17;22.92;;;;;;;14.08;100.00;100937.75;5042696;28;20838;-84
2022/09/11 03:27:13;;;;;;;36.95;22.80;;;;;;;14.09;100.00;100930.69;5045084;28;20120;-84
2022/09/11 03:29:40;;;;;;;34.40;23.10;;;;;;;14.06;100.00;100940.38;5024811;28;20766;-85
2022/09/11 03:32:08;;;;;;;34.65;21.00;;;;;;;14.09;100.00;100944.72;5024722;28;20160;-84
2022/09/11 03:34:35;;;;;;;33.42;22.00;;;;;;;14.07;100.00;100942.13;5026482;28;20052;-84
2022/09/11 03:37:05;;;;;;;33.45;22.50;;;;;;;14.09;100.00;100946.50;5043539;28;20628;-84
2022/09/11 03:39:39;;;;;;;28.38;19.75;;;;;;;14.10;100.00;100948.22;5028741;28;20063;-85
2022/09/11 03:42:11;;;;;;;36.95;23.27;;;;;;;14.09;100.00;100957.88;5040596;28;20125;-85
2022/09/11 03:44:44;;;;;;;29.38;20.17;;;;;;;14.10;100.00;100958.75;5057439;28;21351;-82
2022/09/11 03:47:12;;;;;;;28.83;19.95;;;;;;;14.07;100.00;100963.19;5028482;28;20195;-83
2022/09/11 03:49:39;;;;;;;31.58;21.17;;;;;;;14.07;100.00;100964.94;5043222;28;20052;-84
2022/09/11 03:52:08;;;;;;;25.20;18.27;;;;;;;14.04;100.00;100960.59;5046219;28;20076;-84
2022/09/11 03:54:36;;;;;;;29.98;20.10;;;;;;;14.05;100.00;100961.47;5040818;28;20127;-84
2022/09/11 03:57:05;;;;;;;25.55;19.45;;;;;;;14.05;100.00;100958.84;5044139;28;20454;-85
2022/09/11 03:59:33;;;;;;;27.10;18.00;;;;;;;14.07;100.00;100951.78;5043617;28;20475;-85
2022/09/11 04:02:00;;;;;;;30.00;20.40;;;;;;;14.07;100.00;100957.06;5043275;28;20045;-84
2022/09/11 04:04:28;;;;;;;28.30;19.75;;;;;;;14.05;100.00;100954.47;5040203;28;20069;-84
2022/09/11 04:06:57;;;;;;;31.33;20.33;;;;;;;14.04;100.00;100959.72;5049855;28;20052;-84
2022/09/11 04:09:31;;;;;;;25.27;16.98;;;;;;;14.02;100.00;100965.03;5024601;28;20056;-84
2022/09/11 04:11:57;;;;;;;28.80;18.50;;;;;;;14.02;100.00;100965.03;5042643;28;20092;-84
2022/09/11 04:14:24;;;;;;;31.65;19.38;;;;;;;14.02;100.00;100972.91;5039587;28;20049;-84
2022/09/11 04:16:53;;;;;;;29.25;17.48;;;;;;;14.02;100.00;100965.03;5027774;28;20442;-84
2022/09/11 04:19:22;;;;;;;27.48;16.55;;;;;;;14.03;100.00;100969.41;5025619;28;20480;-84
2022/09/11 04:21:49;;;;;;;23.88;14.55;;;;;;;14.00;100.00;100965.94;5025805;28;20123;-84
2022/09/11 04:24:17;;;;;;;25.52;16.15;;;;;;;13.95;100.00;100962.53;5042310;28;20164;-85
2022/09/11 04:26:45;;;;;;;26.00;16.17;;;;;;;13.92;100.00;100968.72;5043576;28;20080;-85
2022/09/11 04:29:12;;;;;;;27.63;16.48;;;;;;;13.91;100.00;100969.63;5041124;28;20068;-84
2022/09/11 04:31:39;;;;;;;23.13;15.82;;;;;;;13.96;100.00;100964.28;5042238;28;20068;-84
2022/09/11 04:34:08;;;;;;;29.98;18.17;;;;;;;13.92;100.00;100971.34;5045757;28;20128;-85
2022/09/11 04:36:34;;;;;;;27.17;17.23;;;;;;;13.88;100.00;100973.19;5050692;28;20033;-85
2022/09/11 04:39:01;;;;;;;25.90;16.35;;;;;;;13.87;100.00;100973.19;5028988;28;20052;-85
2022/09/11 04:41:29;;;;;;;27.50;18.10;;;;;;;13.87;100.00;100971.44;5028652;28;20090;-85
2022/09/11 04:43:59;;;;;;;27.15;17.10;;;;;;;13.85;100.00;100973.22;5040853;28;20094;-85
2022/09/11 04:46:26;;;;;;;20.73;13.57;;;;;;;13.83;100.00;100972.41;5055452;28;20052;-85
2022/09/11 04:48:58;;;;;;;28.00;17.25;;;;;;;13.83;100.00;100975.03;5026054;28;20155;-85
2022/09/11 04:51:40;;;;;;;25.75;17.75;;;;;;;13.82;100.00;100975.03;5041511;28;20391;-82
2022/09/11 04:54:07;;;;;;;24.65;16.48;;;;;;;13.81;100.00;100981.22;5040975;28;20044;-84
2022/09/11 04:56:41;;;;;;;24.60;15.82;;;;;;;13.81;100.00;100983.84;5043982;28;20053;-84
2022/09/11 04:59:14;;;;;;;27.17;17.40;;;;;;;13.83;100.00;100984.66;5041833;28;20066;-84
2022/09/11 05:01:43;;;;;;;28.30;15.55;;;;;;;13.86;100.00;100984.63;5045253;28;20128;-84
2022/09/11 05:04:14;;;;;;;30.70;18.85;;;;;;;13.88;100.00;100980.19;5044836;28;20690;-84
2022/09/11 05:06:44;;;;;;;30.23;17.60;;;;;;;13.90;100.00;100991.56;5056875;28;20041;-84
2022/09/11 05:09:11;;;;;;;30.48;19.35;;;;;;;13.89;100.00;101001.22;5069126;28;20097;-83
2022/09/11 05:11:38;;;;;;;36.85;20.17;;;;;;;13.87;100.00;101008.28;5051222;28;20402;-84
2022/09/11 05:14:05;;;;;;;31.05;17.80;;;;;;;13.87;100.00;101018.81;5061672;28;20535;-84
2022/09/11 05:16:33;;;;;;;33.65;18.45;;;;;;;13.91;100.00;101014.38;5067892;28;20036;-85
2022/09/11 05:19:01;;;;;;;34.10;19.98;;;;;;;13.92;100.00;101016.09;5063386;28;20048;-84
2022/09/11 05:21:28;;;;;;;33.60;18.52;;;;;;;13.93;100.00;101016.97;5048133;28;20044;-84
2022/09/11 05:23:57;;;;;;;37.15;22.08;;;;;;;13.87;100.00;101026.72;5047843;28;20999;-84
2022/09/11 05:26:37;;;;;;;35.95;20.30;;;;;;;13.85;100.00;101025.00;5028494;28;20048;-85
2022/09/11 05:29:10;;;;;;;41.20;21.98;;;;;;;13.84;100.00;101034.63;5063332;28;20052;-85
2022/09/11 05:31:36;;;;;;;42.30;21.90;;;;;;;13.79;100.00;101036.47;5060153;28;20699;-84
2022/09/11 05:34:06;;;;;;;42.72;22.33;;;;;;;13.76;100.00;101030.41;5028391;28;20307;-85
2022/09/11 05:36:34;;;;;;;41.33;21.20;;;;;;;13.71;100.00;101034.00;5043969;28;20040;-84
2022/09/11 05:39:02;;;;;;;45.17;21.45;;;;;;;13.72;100.00;101027.81;5043827;28;20099;-84
2022/09/11 05:41:28;;;;;;;42.53;22.17;;;;;;;13.73;100.00;101032.19;5031285;28;20055;-84
2022/09/11 05:43:55;;;;;;;37.03;20.92;;;;;;;13.75;100.00;101037.41;5031138;28;20049;-84
2022/09/11 05:49:38;;;;;;;43.13;21.40;;;;;;;13.73;100.00;101039.22;5077292;28;20056;-84
2022/09/11 05:52:05;;;;;;;47.45;23.45;;;;;;;13.73;100.00;101047.97;5014649;28;20102;-84
2022/09/11 05:54:32;;;;;;;41.92;20.88;;;;;;;13.75;100.00;101049.72;5060262;28;20076;-85
2022/09/11 05:56:59;;;;;;;38.00;18.67;;;;;;;13.79;100.00;101056.66;5047930;28;20055;-85
2022/09/11 05:59:26;;;;;;;46.33;21.63;;;;;;;13.81;100.00;101061.00;5047590;28;20066;-85
2022/09/11 06:01:53;;;;;;;36.72;19.42;;;;;;;13.85;100.00;101062.69;5061509;28;20052;-86
2022/09/11 06:04:19;;;;;;;40.63;22.67;;;;;;;13.87;100.00;101070.56;5030178;28;20743;-84
2022/09/11 06:06:47;;;;;;;39.33;20.67;;;;;;;13.87;100.00;101071.44;5047994;28;20048;-84
2022/09/11 06:09:15;;;;;;;35.25;19.00;;;;;;;13.87;100.00;101081.09;5046846;28;20548;-84
2022/09/11 06:11:42;;;;;;;30.38;18.17;;;;;;;13.86;100.00;101080.22;5045466;28;21184;-84
2022/09/11 06:14:09;;;;;;;31.02;17.92;;;;;;;13.92;100.00;101084.50;5033037;28;20090;-84
2022/09/11 06:16:36;;;;;;;29.77;17.85;;;;;;;13.94;100.00;101092.41;5056572;28;20044;-84
2022/09/11 06:19:06;;;;;;;31.38;18.08;;;;;;;13.98;100.00;101086.19;5064839;28;20052;-84
2022/09/11 06:21:33;;;;;;;35.53;20.05;;;;;;;13.99;100.00;101095.84;5064192;28;20098;-85
2022/09/11 06:23:59;;;;;;;31.42;19.88;;;;;;;14.02;100.00;101098.41;5028139;28;20052;-84
2022/09/11 06:26:40;;;;;;;32.65;20.17;;;;;;;14.04;100.00;101089.59;5030228;28;20064;-84
2022/09/11 06:29:13;;;;;;;40.55;22.15;;;;;;;14.11;100.00;101089.50;5018072;28;20078;-85
2022/09/11 06:31:40;;;;;;;36.78;21.85;;;;;;;14.17;100.00;101100.78;5063075;28;20155;-84
2022/09/11 06:34:14;;;;;;;35.20;20.77;;;;;;;14.24;100.00;101098.91;5032470;28;20045;-84
2022/09/11 06:36:44;;;;;;;29.63;18.67;;;;;;;14.32;100.00;101104.91;5035659;28;20781;-84
2022/09/11 06:39:11;;;;;;;34.85;18.92;;;;;;;14.36;100.00;101106.59;5061183;28;20100;-84
2022/09/11 06:41:39;;;;;;;27.02;17.42;;;;;;;14.41;100.00;101108.31;5059643;28;20040;-85
2022/09/11 06:44:10;;;;;;;37.25;22.98;;;;;;;14.46;100.00;101117.00;5050698;28;20051;-84
2022/09/11 06:46:37;;;;;;;36.60;21.25;;;;;;;14.47;100.00;101110.81;5057966;28;20060;-84
2022/09/11 06:49:05;;;;;;;31.83;20.63;;;;;;;14.51;100.00;101118.66;5049079;28;20067;-84
2022/09/11 06:51:34;;;;;;;33.13;20.92;;;;;;;14.57;100.00;101112.38;5067412;28;20536;-84
2022/09/11 06:54:01;;;;;;;28.10;17.90;;;;;;;14.63;100.00;101112.28;5066637;28;20049;-84
2022/09/11 06:56:31;;;;;;;27.02;19.23;;;;;;;14.68;100.00;101115.72;5051040;28;20041;-83
2022/09/11 06:58:58;;;;;;;26.58;18.63;;;;;;;14.70;100.00;101120.97;5053870;28;20048;-83
2022/09/11 07:01:27;;;;;;;26.85;18.63;;;;;;;14.72;100.00;101127.09;5068934;28;20048;-83
2022/09/11 07:03:55;;;;;;;35.80;21.23;;;;;;;14.72;100.00;101122.69;5053869;28;20151;-83
2022/09/11 07:06:33;;;;;;;33.03;20.45;;;;;;;14.77;100.00;101129.63;5049351;28;20120;-84
2022/09/11 07:09:08;;;;;;;31.50;21.08;;;;;;;14.78;100.00;101124.31;5081342;28;20078;-84
2022/09/11 07:11:46;;;;;;;33.40;20.60;;;;;;;14.82;100.00;101119.88;5049097;28;20048;-83
2022/09/11 07:14:27;;;;;;;29.70;19.02;;;;;;;14.88;100.00;101125.03;5040260;28;20052;-85
2022/09/11 07:16:54;;;;;;;28.40;19.55;;;;;;;14.95;100.00;101128.41;5038900;28;20072;-84
2022/09/11 07:19:24;;;;;;;29.98;20.50;;;;;;;14.99;100.00;101132.72;5048984;28;20049;-84
2022/09/11 07:21:51;;;;;;;31.08;21.08;;;;;;;15.02;100.00;101135.31;5033641;28;20045;-84
2022/09/11 07:24:18;;;;;;;31.67;21.10;;;;;;;15.05;100.00;101132.59;5030992;28;20040;-84
2022/09/11 07:26:45;;;;;;;32.33;21.10;;;;;;;15.09;100.00;101133.41;5050609;28;20047;-85
2022/09/11 07:29:13;;;;;;;27.02;19.17;;;;;;;15.17;100.00;101134.13;5051872;28;20052;-84
2022/09/11 07:31:42;;;;;;;34.88;21.00;;;;;;;15.24;100.00;101133.09;5051744;28;20049;-83
2022/09/11 07:34:09;;;;;;;30.48;21.98;;;;;;;15.36;100.00;101134.63;5046804;28;20051;-84
2022/09/11 07:36:39;;;;;;;29.92;20.10;;;;;;;15.43;100.00;101130.94;5048164;28;20056;-84
2022/09/11 07:39:05;;;;;;;28.17;20.58;;;;;;;15.50;100.00;101134.31;5030996;28;20036;-84
2022/09/11 07:41:33;;;;;;;26.77;17.30;;;;;;;15.59;100.00;101128.84;5047945;28;20048;-84
2022/09/11 07:44:00;;;;;;;28.88;19.55;;;;;;;15.67;100.00;101128.66;5048642;28;20048;-84
2022/09/11 07:46:28;;;;;;;32.67;21.58;;;;;;;15.74;100.00;101130.25;5050031;28;20086;-83
2022/09/11 07:48:57;;;;;;;29.05;19.38;;;;;;;15.76;100.00;101136.38;5049044;28;20064;-83
2022/09/11 07:51:25;;;;;;;33.80;22.40;;;;;;;15.84;100.00;101138.88;5046746;28;20052;-84
2022/09/11 07:53:53;;;;;;;31.80;21.15;;;;;;;15.85;100.00;101146.75;5032099;28;20049;-85
2022/09/11 07:56:27;;;;;;;28.73;21.15;;;;;;;15.84;100.00;101144.16;5048208;28;20807;-84
2022/09/11 07:58:56;;;;;;;34.78;21.42;;;;;;;15.82;100.00;101148.59;5033009;28;20123;-84
2022/09/11 08:01:29;;;;;;;29.20;20.48;;;;;;;15.86;100.00;101152.91;5050520;28;20052;-84
2022/09/11 08:04:03;;;;;;;27.27;19.58;;;;;;;15.99;100.00;101158.75;5036431;28;20052;-84
2022/09/11 08:06:36;;;;;;;30.83;21.45;;;;;;;16.15;100.00;101161.91;5015988;28;20152;-84
2022/09/11 08:09:08;;;;;;;33.25;21.88;;;;;;;16.19;100.00;101167.09;5072022;28;20743;-84
2022/09/11 08:11:45;;;;;;;25.67;19.77;;;;;;;16.21;100.00;101159.13;5051390;28;20438;-85
2022/09/11 08:14:20;;;;;;;32.85;21.27;;;;;;;16.31;100.00;101165.91;5066268;28;20550;-83
2022/09/11 08:16:48;;;;;;;24.30;18.13;;;;;;;16.44;100.00;101166.47;5053429;28;20501;-83
2022/09/11 08:19:21;;;;;;;29.83;20.15;;;;;;;16.57;100.00;101177.63;5039735;28;20061;-83
2022/09/11 08:24:37;;;;;;;28.45;18.63;;;;;;;16.83;100.00;101171.63;5035667;28;20044;-84
2022/09/11 08:27:07;;;;;;;27.35;18.00;;;;;;;16.96;100.00;101168.69;5037709;28;20047;-84
2022/09/11 08:29:34;;;;;;;24.30;17.23;;;;;;;17.01;99.31;101170.31;5023334;28;20040;-83
2022/09/11 08:32:00;;;;;;;26.95;18.33;;;;;;;17.08;100.00;101176.28;5021472;28;20041;-84
2022/09/11 08:34:28;;;;;;;20.85;15.60;;;;;;;17.19;98.83;101178.63;5035502;28;20055;-85
2022/09/11 08:36:55;;;;;;;25.83;18.00;;;;;;;17.36;97.92;101178.16;5052699;28;20097;-84
2022/09/11 08:39:23;;;;;;;24.45;16.90;;;;;;;17.48;96.64;101179.56;5050871;28;20041;-84
2022/09/11 08:41:56;;;;;;;20.90;15.52;;;;;;;17.57;96.40;101181.09;5037643;28;20124;-84
2022/09/11 08:44:36;;;;;;;23.20;17.13;;;;;;;17.70;92.81;101185.09;5077845;28;20108;-84
2022/09/11 08:47:14;;;;;;;21.48;15.85;;;;;;;17.80;92.44;101185.69;5073260;28;20049;-83
2022/09/11 08:49:56;;;;;;;19.65;15.20;;;;;;;17.84;91.23;101185.53;5054112;28;20387;-84
2022/09/11 08:52:25;;;;;;;22.92;16.00;;;;;;;17.85;90.10;101189.91;5053314;28;20398;-84
2022/09/11 08:55:05;;;;;;;19.02;14.10;;;;;;;17.79;90.81;101183.94;5053833;28;20563;-84
2022/09/11 08:57:57;;;;;;;21.48;15.18;;;;;;;17.72;89.41;101191.22;5034259;28;20129;-84
2022/09/11 09:00:32;;;;;;;15.23;12.05;;;;;;;17.53;90.88;101196.19;5058797;28;20696;-84
2022/09/11 09:03:14;;;;;;;20.05;14.38;;;;;;;17.42;91.29;101203.59;5039205;28;20037;-84
2022/09/11 09:06:34;;;;;;;19.70;13.48;;;;;;;17.26;91.82;101206.66;5070771;28;20044;-84
2022/09/11 09:09:39;;;;;;;21.73;15.35;;;;;;;17.15;92.71;101212.22;5087901;28;20075;-84
2022/09/11 09:12:44;;;;;;;20.90;14.50;;;;;;;17.13;92.63;101214.06;5055714;28;20457;-84
2022/09/11 09:16:03;;;;;;;16.77;13.70;;;;;;;17.09;93.77;101211.53;5049879;28;20054;-83
2022/09/11 09:18:49;;;;;;;16.17;12.15;;;;;;;17.10;92.13;101208.00;5064795;28;20044;-84
2022/09/11 09:21:26;;;;;;;17.38;13.20;;;;;;;17.17;92.70;101215.72;5046698;28;20048;-84
2022/09/11 09:23:56;;;;;;;19.40;13.38;;;;;;;17.16;92.50;101211.34;5045855;28;20076;-83
2022/09/11 09:26:37;;;;;;;15.98;12.73;;;;;;;17.31;90.81;101212.69;5047647;28;20036;-84
2022/09/11 09:29:09;;;;;;;15.30;11.23;;;;;;;17.64;88.83;101209.97;5034251;28;20483;-84
2022/09/11 09:31:40;;;;;;;17.42;12.48;;;;;;;18.09;87.43;101211.28;5027584;28;20044;-83
2022/09/11 09:34:26;;;;;;;14.48;10.65;;;;;;;18.61;82.20;101207.88;5062983;28;20045;-85
2022/09/11 09:37:08;;;;;;;13.55;11.07;;;;;;;18.97;81.06;101211.06;5030726;28;20090;-87
2022/09/11 09:39:36;;;;;;;12.52;10.65;;;;;;;19.07;79.25;101218.69;5067178;28;20078;-85
2022/09/11 09:42:29;;;;;;;10.98;9.55;;;;;;;19.08;79.06;101213.34;5029732;28;20173;-85
2022/09/11 09:45:26;;;;;;;13.87;9.70;;;;;;;19.08;78.55;101210.69;5049283;28;20076;-84
2022/09/11 09:47:53;;;;;;;13.57;10.40;;;;;;;19.16;79.22;101205.97;5066234;28;20821;-85
2022/09/11 09:50:44;;;;;;;12.55;9.95;;;;;;;19.17;77.55;101214.81;5066223;28;20052;-85
2022/09/11 09:53:32;;;;;;;11.55;9.63;;;;;;;19.04;76.77;101218.81;5048291;28;20060;-84
2022/09/11 09:56:03;;;;;;;12.18;9.95;;;;;;;18.91;78.92;101221.03;5019614;28;20139;-84
2022/09/11 09:58:41;;;;;;;15.45;10.57;;;;;;;18.83;79.04;101210.66;5049377;28;20040;-85
2022/09/11 10:01:40;;;;;;;13.85;9.63;;;;;;;18.83;78.19;101223.91;5049192;28;20452;-84
2022/09/11 10:04:44;;;;;;;14.88;9.93;;;;;;;18.82;78.11;101223.03;5051299;28;20587;-85
2022/09/11 10:07:20;;;;;;;21.15;11.65;;;;;;;18.67;77.65;101229.75;5068921;28;20438;-83
2022/09/11 10:10:01;;;;;;;11.75;9.60;;;;;;;18.66;78.57;101228.00;5049488;28;20056;-84
2022/09/11 10:12:30;;;;;;;13.77;11.02;;;;;;;18.94;77.44;101219.16;5032600;28;20060;-85
2022/09/11 10:15:20;;;;;;;11.85;9.57;;;;;;;19.22;76.12;101220.81;5051287;28;20498;-84
2022/09/11 10:17:47;;;;;;;10.88;8.85;;;;;;;19.48;75.06;101227.81;5015475;28;20135;-83
2022/09/11 10:20:17;;;;;;;15.30;10.32;;;;;;;19.64;73.77;101216.63;5065369;28;20111;-84
2022/09/11 10:22:49;;;;;;;12.93;9.75;;;;;;;19.74;73.89;101219.81;5079962;28;20044;-84
2022/09/11 10:25:28;;;;;;;12.85;10.52;;;;;;;19.64;73.04;101222.78;5065783;28;20076;-85
2022/09/11 10:28:07;;;;;;;13.43;10.73;;;;;;;19.60;73.52;101222.97;5064770;28;20041;-84
2022/09/11 10:30:38;;;;;;;17.17;11.85;;;;;;;19.42;74.53;101221.88;5034777;28;20044;-85
2022/09/11 10:33:25;;;;;;;15.60;12.18;;;;;;;19.18;75.72;101227.16;5047995;28;20040;-84
2022/09/11 10:35:55;;;;;;;18.40;11.15;;;;;;;18.95;76.88;101234.13;5047380;28;20387;-84
2022/09/11 10:38:31;;;;;;;16.35;11.40;;;;;;;18.77;77.97;101230.31;5047806;28;20078;-85
2022/09/11 10:41:17;;;;;;;12.73;9.25;;;;;;;18.84;77.94;101233.63;5061802;28;20108;-84
2022/09/11 10:44:03;;;;;;;14.15;10.82;;;;;;;18.96;77.42;101237.66;5031187;28;20048;-84
2022/09/11 10:46:39;;;;;;;14.98;10.07;;;;;;;19.05;77.55;101242.66;5053118;28;20083;-85
2022/09/11 10:49:07;;;;;;;15.88;10.85;;;;;;;19.15;76.86;101243.16;5062831;28;20060;-84
2022/09/11 10:51:42;;;;;;;13.20;10.70;;;;;;;19.00;77.69;101247.25;5058247;28;20071;-85
2022/09/11 10:54:40;;;;;;;13.15;10.07;;;;;;;18.78;78.32;101245.28;5048715;28;20063;-84
2022/09/11 10:57:39;;;;;;;15.85;10.25;;;;;;;18.47;79.67;101243.66;5053705;28;20052;-87
2022/09/11 11:00:29;;;;;;;16.90;12.63;;;;;;;18.25;81.03;101250.56;5059273;28;20049;-84
2022/09/11 11:03:22;;;;;;;16.45;10.00;;;;;;;18.01;82.89;101245.09;5046686;28;20047;-85
2022/09/11 11:06:22;;;;;;;13.82;10.82;;;;;;;18.07;83.24;101238.75;5046375;28;20625;-85
2022/09/11 11:09:19;;;;;;;13.95;9.95;;;;;;;18.37;81.52;101244.00;5086596;28;20041;-84
2022/09/11 11:12:09;;;;;;;18.77;10.85;;;;;;;18.87;79.11;101244.09;5057522;28;20774;-84
2022/09/11 11:15:25;;;;;;;15.43;10.23;;;;;;;19.16;77.70;101248.44;5033555;28;20060;-84
2022/09/11 11:18:25;;;;;;;8.70;7.65;;;;;;;19.36;76.01;101243.31;5058151;28;20132;-84
2022/09/11 11:21:19;;;;;;;13.52;9.40;;;;;;;19.38;74.30;101247.66;5039484;28;20052;-84
2022/09/11 11:23:58;;;;;;;10.98;7.93;;;;;;;19.71;74.79;101251.78;5066878;28;20563;-84
2022/09/11 11:26:58;;;;;;;7.68;6.65;;;;;;;20.37;71.61;101251.88;5068428;28;20045;-84
2022/09/11 11:29:44;;;;;;;9.77;7.30;;;;;;;21.32;66.67;101246.16;5034683;28;20044;-85
2022/09/11 11:32:42;;;;;;;10.43;7.28;;;;;;;21.73;63.84;101245.22;5049796;28;20049;-85
2022/09/11 11:35:24;;;;;;;9.30;8.38;;;;;;;21.94;63.86;101244.22;5066011;28;20048;-84
2022/09/11 11:38:03;;;;;;;9.30;7.85;;;;;;;21.63;64.81;101245.66;5066856;28;20479;-84
2022/09/11 11:40:41;;;;;;;6.80;6.05;;;;;;;21.28;64.91;101244.56;5048601;28;20036;-84
2022/09/11 11:43:16;;;;;;;10.50;6.80;;;;;;;20.91;66.14;101247.03;5031156;28;20049;-83
2022/09/11 11:45:57;;;;;;;10.63;7.93;;;;;;;20.59;66.07;101254.53;5053533;28;20682;-84
2022/09/11 11:48:37;;;;;;;8.52;6.65;;;;;;;20.30;68.15;101253.09;5058544;28;20487;-85
2022/09/11 11:51:15;;;;;;;8.73;6.38;;;;;;;20.41;68.28;101253.50;5035762;28;20052;-86